sensor_id;sensor_type;location;lat;lon;timestamp;P1;durP1;ratioP1;P2;durP2;ratioP2
15285;SDS011;7744;52.172;10.668;2023-09-07T00:00:35;6.28;;;5.32;;
15285;SDS011;7744;52.172;10.668;2023-09-07T00:03:01;5.63;;;5.13;;
15285;SDS011;7744;52.172;10.668;2023-09-07T00:05:26;6.05;;;5.40;;
15285;SDS011;7744;52.172;10.668;2023-09-07T00:07:52;7.40;;;5.47;;
15285;SDS011;7744;52.172;10.668;2023-09-07T00:10:18;7.72;;;5.53;;
15285;SDS011;7744;52.172;10.668;2023-09-07T00:12:43;5.68;;;5.18;;
15285;SDS011;7744;52.172;10.668;2023-09-07T00:15:09;5.30;;;4.90;;
15285;SDS011;7744;52.172;10.668;2023-09-07T00:17:35;5.85;;;5.35;;
15285;SDS011;7744;52.172;10.668;2023-09-07T00:20:01;7.35;;;6.00;;
15285;SDS011;7744;52.172;10.668;2023-09-07T00:22:39;6.47;;;5.65;;
15285;SDS011;7744;52.172;10.668;2023-09-07T00:25:05;6.40;;;5.80;;
15285;SDS011;7744;52.172;10.668;2023-09-07T00:27:31;5.90;;;5.40;;
15285;SDS011;7744;52.172;10.668;2023-09-07T00:29:58;7.10;;;5.63;;
15285;SDS011;7744;52.172;10.668;2023-09-07T00:32:24;6.50;;;5.72;;
15285;SDS011;7744;52.172;10.668;2023-09-07T00:34:49;5.65;;;5.15;;
15285;SDS011;7744;52.172;10.668;2023-09-07T00:37:15;6.07;;;5.53;;
15285;SDS011;7744;52.172;10.668;2023-09-07T00:39:40;5.75;;;5.25;;
15285;SDS011;7744;52.172;10.668;2023-09-07T00:42:06;6.20;;;5.57;;
15285;SDS011;7744;52.172;10.668;2023-09-07T00:44:32;7.18;;;5.97;;
15285;SDS011;7744;52.172;10.668;2023-09-07T00:46:57;6.57;;;5.90;;
15285;SDS011;7744;52.172;10.668;2023-09-07T00:49:23;6.63;;;6.03;;
15285;SDS011;7744;52.172;10.668;2023-09-07T00:51:50;7.68;;;6.50;;
15285;SDS011;7744;52.172;10.668;2023-09-07T00:54:17;5.97;;;5.47;;
15285;SDS011;7744;52.172;10.668;2023-09-07T00:56:43;6.25;;;5.65;;
15285;SDS011;7744;52.172;10.668;2023-09-07T00:59:09;6.60;;;6.00;;
15285;SDS011;7744;52.172;10.668;2023-09-07T01:01:36;6.47;;;5.88;;
15285;SDS011;7744;52.172;10.668;2023-09-07T01:04:02;6.32;;;5.82;;
15285;SDS011;7744;52.172;10.668;2023-09-07T01:06:45;6.32;;;5.82;;
15285;SDS011;7744;52.172;10.668;2023-09-07T01:09:23;7.10;;;6.50;;
15285;SDS011;7744;52.172;10.668;2023-09-07T01:11:51;7.50;;;6.80;;
15285;SDS011;7744;52.172;10.668;2023-09-07T01:14:18;6.55;;;5.82;;
15285;SDS011;7744;52.172;10.668;2023-09-07T01:16:43;6.90;;;6.22;;
15285;SDS011;7744;52.172;10.668;2023-09-07T01:19:09;7.07;;;6.47;;
15285;SDS011;7744;52.172;10.668;2023-09-07T01:21:37;7.10;;;6.45;;
15285;SDS011;7744;52.172;10.668;2023-09-07T01:24:04;7.97;;;6.72;;
15285;SDS011;7744;52.172;10.668;2023-09-07T01:26:32;7.40;;;6.70;;
15285;SDS011;7744;52.172;10.668;2023-09-07T01:28:59;6.82;;;6.22;;
15285;SDS011;7744;52.172;10.668;2023-09-07T01:31:26;7.60;;;6.90;;
15285;SDS011;7744;52.172;10.668;2023-09-07T01:33:51;8.00;;;6.25;;
15285;SDS011;7744;52.172;10.668;2023-09-07T01:36:17;7.30;;;6.70;;
15285;SDS011;7744;52.172;10.668;2023-09-07T01:38:42;7.03;;;6.43;;
15285;SDS011;7744;52.172;10.668;2023-09-07T01:41:08;7.40;;;6.70;;
15285;SDS011;7744;52.172;10.668;2023-09-07T01:43:34;7.43;;;6.72;;
15285;SDS011;7744;52.172;10.668;2023-09-07T01:46:00;7.72;;;7.05;;
15285;SDS011;7744;52.172;10.668;2023-09-07T01:48:26;7.15;;;6.43;;
15285;SDS011;7744;52.172;10.668;2023-09-07T01:50:52;7.40;;;6.65;;
15285;SDS011;7744;52.172;10.668;2023-09-07T01:53:18;6.65;;;6.07;;
15285;SDS011;7744;52.172;10.668;2023-09-07T01:55:44;7.43;;;6.72;;
15285;SDS011;7744;52.172;10.668;2023-09-07T01:58:10;7.53;;;6.82;;
15285;SDS011;7744;52.172;10.668;2023-09-07T02:00:36;7.28;;;6.63;;
15285;SDS011;7744;52.172;10.668;2023-09-07T02:03:03;7.20;;;6.53;;
15285;SDS011;7744;52.172;10.668;2023-09-07T02:05:29;7.00;;;6.30;;
15285;SDS011;7744;52.172;10.668;2023-09-07T02:07:54;8.85;;;6.85;;
15285;SDS011;7744;52.172;10.668;2023-09-07T02:10:20;7.35;;;6.65;;
15285;SDS011;7744;52.172;10.668;2023-09-07T02:12:46;7.68;;;6.97;;
15285;SDS011;7744;52.172;10.668;2023-09-07T02:15:11;7.57;;;6.78;;
15285;SDS011;7744;52.172;10.668;2023-09-07T02:17:37;7.68;;;6.97;;
15285;SDS011;7744;52.172;10.668;2023-09-07T02:20:02;9.25;;;7.05;;
15285;SDS011;7744;52.172;10.668;2023-09-07T02:22:35;7.85;;;6.97;;
15285;SDS011;7744;52.172;10.668;2023-09-07T02:25:01;7.30;;;6.60;;
15285;SDS011;7744;52.172;10.668;2023-09-07T02:27:27;7.75;;;7.00;;
15285;SDS011;7744;52.172;10.668;2023-09-07T02:29:53;8.75;;;7.47;;
15285;SDS011;7744;52.172;10.668;2023-09-07T02:32:19;8.85;;;6.80;;
15285;SDS011;7744;52.172;10.668;2023-09-07T02:34:44;7.72;;;7.00;;
15285;SDS011;7744;52.172;10.668;2023-09-07T02:37:10;7.32;;;6.55;;
15285;SDS011;7744;52.172;10.668;2023-09-07T02:39:35;7.43;;;6.63;;
15285;SDS011;7744;52.172;10.668;2023-09-07T02:42:01;7.03;;;6.43;;
15285;SDS011;7744;52.172;10.668;2023-09-07T02:44:26;7.70;;;7.03;;
15285;SDS011;7744;52.172;10.668;2023-09-07T02:46:52;6.80;;;6.20;;
15285;SDS011;7744;52.172;10.668;2023-09-07T02:49:18;7.28;;;6.63;;
15285;SDS011;7744;52.172;10.668;2023-09-07T02:51:43;7.88;;;6.47;;
15285;SDS011;7744;52.172;10.668;2023-09-07T02:54:10;7.07;;;6.47;;
15285;SDS011;7744;52.172;10.668;2023-09-07T02:56:35;7.50;;;6.70;;
15285;SDS011;7744;52.172;10.668;2023-09-07T02:59:01;7.72;;;7.07;;
15285;SDS011;7744;52.172;10.668;2023-09-07T03:01:28;6.63;;;5.95;;
15285;SDS011;7744;52.172;10.668;2023-09-07T03:03:53;7.10;;;6.40;;
15285;SDS011;7744;52.172;10.668;2023-09-07T03:06:19;7.22;;;6.53;;
15285;SDS011;7744;52.172;10.668;2023-09-07T03:08:45;7.88;;;7.18;;
15285;SDS011;7744;52.172;10.668;2023-09-07T03:11:10;7.03;;;6.40;;
15285;SDS011;7744;52.172;10.668;2023-09-07T03:13:36;7.90;;;7.20;;
15285;SDS011;7744;52.172;10.668;2023-09-07T03:16:02;7.90;;;6.70;;
15285;SDS011;7744;52.172;10.668;2023-09-07T03:18:28;7.13;;;6.53;;
15285;SDS011;7744;52.172;10.668;2023-09-07T03:20:55;7.63;;;6.53;;
15285;SDS011;7744;52.172;10.668;2023-09-07T03:23:23;6.97;;;6.28;;
15285;SDS011;7744;52.172;10.668;2023-09-07T03:25:48;7.90;;;6.70;;
15285;SDS011;7744;52.172;10.668;2023-09-07T03:28:14;7.47;;;6.78;;
15285;SDS011;7744;52.172;10.668;2023-09-07T03:30:39;7.80;;;7.10;;
15285;SDS011;7744;52.172;10.668;2023-09-07T03:33:05;7.40;;;6.70;;
15285;SDS011;7744;52.172;10.668;2023-09-07T03:35:31;7.50;;;6.70;;
15285;SDS011;7744;52.172;10.668;2023-09-07T03:37:57;8.25;;;7.45;;
15285;SDS011;7744;52.172;10.668;2023-09-07T03:40:23;8.40;;;7.70;;
15285;SDS011;7744;52.172;10.668;2023-09-07T03:42:49;8.07;;;6.97;;
15285;SDS011;7744;52.172;10.668;2023-09-07T03:45:14;7.95;;;7.25;;
15285;SDS011;7744;52.172;10.668;2023-09-07T03:47:40;8.43;;;7.60;;
15285;SDS011;7744;52.172;10.668;2023-09-07T03:50:06;8.75;;;7.95;;
15285;SDS011;7744;52.172;10.668;2023-09-07T03:52:32;7.60;;;6.90;;
15285;SDS011;7744;52.172;10.668;2023-09-07T03:54:59;8.63;;;7.70;;
15285;SDS011;7744;52.172;10.668;2023-09-07T03:57:25;7.90;;;7.20;;
15285;SDS011;7744;52.172;10.668;2023-09-07T03:59:51;7.93;;;7.22;;
15285;SDS011;7744;52.172;10.668;2023-09-07T04:02:17;8.57;;;7.70;;
15285;SDS011;7744;52.172;10.668;2023-09-07T04:04:42;9.25;;;8.15;;
15285;SDS011;7744;52.172;10.668;2023-09-07T04:07:09;9.43;;;8.40;;
15285;SDS011;7744;52.172;10.668;2023-09-07T04:09:34;8.35;;;7.65;;
15285;SDS011;7744;52.172;10.668;2023-09-07T04:12:00;9.25;;;8.35;;
15285;SDS011;7744;52.172;10.668;2023-09-07T04:14:26;8.27;;;7.53;;
15285;SDS011;7744;52.172;10.668;2023-09-07T04:16:53;9.10;;;8.27;;
15285;SDS011;7744;52.172;10.668;2023-09-07T04:19:18;7.80;;;7.10;;
15285;SDS011;7744;52.172;10.668;2023-09-07T04:21:44;9.35;;;8.45;;
15285;SDS011;7744;52.172;10.668;2023-09-07T04:24:10;8.80;;;8.00;;
15285;SDS011;7744;52.172;10.668;2023-09-07T04:26:36;9.40;;;8.02;;
15285;SDS011;7744;52.172;10.668;2023-09-07T04:29:02;8.75;;;7.88;;
15285;SDS011;7744;52.172;10.668;2023-09-07T04:31:28;8.52;;;7.72;;
15285;SDS011;7744;52.172;10.668;2023-09-07T04:33:54;8.90;;;8.00;;
15285;SDS011;7744;52.172;10.668;2023-09-07T04:36:20;8.50;;;7.70;;
15285;SDS011;7744;52.172;10.668;2023-09-07T04:38:45;8.27;;;7.47;;
15285;SDS011;7744;52.172;10.668;2023-09-07T04:41:11;8.68;;;7.95;;
15285;SDS011;7744;52.172;10.668;2023-09-07T04:43:38;8.90;;;8.00;;
15285;SDS011;7744;52.172;10.668;2023-09-07T04:46:05;8.75;;;7.78;;
15285;SDS011;7744;52.172;10.668;2023-09-07T04:48:31;9.27;;;8.48;;
15285;SDS011;7744;52.172;10.668;2023-09-07T04:51:02;9.15;;;8.27;;
15285;SDS011;7744;52.172;10.668;2023-09-07T04:53:31;9.10;;;8.30;;
15285;SDS011;7744;52.172;10.668;2023-09-07T04:55:58;12.20;;;9.73;;
15285;SDS011;7744;52.172;10.668;2023-09-07T04:58:24;10.48;;;9.13;;
15285;SDS011;7744;52.172;10.668;2023-09-07T05:00:49;9.82;;;8.80;;
15285;SDS011;7744;52.172;10.668;2023-09-07T05:03:15;10.05;;;8.98;;
15285;SDS011;7744;52.172;10.668;2023-09-07T05:05:41;16.02;;;8.70;;
15285;SDS011;7744;52.172;10.668;2023-09-07T05:08:07;10.68;;;9.13;;
15285;SDS011;7744;52.172;10.668;2023-09-07T05:10:33;9.93;;;8.95;;
15285;SDS011;7744;52.172;10.668;2023-09-07T05:12:59;10.20;;;9.20;;
15285;SDS011;7744;52.172;10.668;2023-09-07T05:15:25;9.18;;;8.00;;
15285;SDS011;7744;52.172;10.668;2023-09-07T05:17:51;9.50;;;8.65;;
15285;SDS011;7744;52.172;10.668;2023-09-07T05:20:17;9.07;;;8.15;;
15285;SDS011;7744;52.172;10.668;2023-09-07T05:22:42;9.63;;;8.73;;
15285;SDS011;7744;52.172;10.668;2023-09-07T05:25:08;9.70;;;8.80;;
15285;SDS011;7744;52.172;10.668;2023-09-07T05:27:34;9.15;;;8.25;;
15285;SDS011;7744;52.172;10.668;2023-09-07T05:30:01;13.77;;;8.75;;
15285;SDS011;7744;52.172;10.668;2023-09-07T05:32:27;9.45;;;8.55;;
15285;SDS011;7744;52.172;10.668;2023-09-07T05:34:52;11.35;;;8.25;;
15285;SDS011;7744;52.172;10.668;2023-09-07T05:37:18;8.73;;;7.82;;
15285;SDS011;7744;52.172;10.668;2023-09-07T05:39:43;8.93;;;8.13;;
15285;SDS011;7744;52.172;10.668;2023-09-07T05:42:09;8.75;;;7.95;;
15285;SDS011;7744;52.172;10.668;2023-09-07T05:44:35;8.82;;;8.02;;
15285;SDS011;7744;52.172;10.668;2023-09-07T05:47:01;9.90;;;8.55;;
15285;SDS011;7744;52.172;10.668;2023-09-07T05:49:27;9.02;;;8.23;;
15285;SDS011;7744;52.172;10.668;2023-09-07T05:51:53;9.55;;;8.13;;
15285;SDS011;7744;52.172;10.668;2023-09-07T05:54:18;8.27;;;7.50;;
15285;SDS011;7744;52.172;10.668;2023-09-07T05:56:44;9.43;;;8.45;;
15285;SDS011;7744;52.172;10.668;2023-09-07T05:59:09;8.05;;;7.35;;
15285;SDS011;7744;52.172;10.668;2023-09-07T06:01:35;8.57;;;7.82;;
15285;SDS011;7744;52.172;10.668;2023-09-07T06:04:01;8.00;;;7.30;;
15285;SDS011;7744;52.172;10.668;2023-09-07T06:06:27;8.82;;;8.02;;
15285;SDS011;7744;52.172;10.668;2023-09-07T06:08:53;8.20;;;7.40;;
15285;SDS011;7744;52.172;10.668;2023-09-07T06:11:19;8.63;;;7.78;;
15285;SDS011;7744;52.172;10.668;2023-09-07T06:13:44;8.10;;;7.30;;
15285;SDS011;7744;52.172;10.668;2023-09-07T06:16:11;8.60;;;7.85;;
15285;SDS011;7744;52.172;10.668;2023-09-07T06:18:37;8.25;;;7.45;;
15285;SDS011;7744;52.172;10.668;2023-09-07T06:21:03;8.93;;;8.05;;
15285;SDS011;7744;52.172;10.668;2023-09-07T06:23:30;8.32;;;7.57;;
15285;SDS011;7744;52.172;10.668;2023-09-07T06:25:56;8.90;;;8.07;;
15285;SDS011;7744;52.172;10.668;2023-09-07T06:28:22;11.60;;;10.20;;
15285;SDS011;7744;52.172;10.668;2023-09-07T06:30:47;9.52;;;8.57;;
15285;SDS011;7744;52.172;10.668;2023-09-07T06:33:13;10.52;;;9.52;;
15285;SDS011;7744;52.172;10.668;2023-09-07T06:35:39;9.60;;;8.70;;
15285;SDS011;7744;52.172;10.668;2023-09-07T06:38:04;10.88;;;9.75;;
15285;SDS011;7744;52.172;10.668;2023-09-07T06:40:30;9.20;;;8.27;;
15285;SDS011;7744;52.172;10.668;2023-09-07T06:42:56;10.43;;;9.43;;
15285;SDS011;7744;52.172;10.668;2023-09-07T06:45:22;10.80;;;9.43;;
15285;SDS011;7744;52.172;10.668;2023-09-07T06:47:51;10.50;;;9.50;;
15285;SDS011;7744;52.172;10.668;2023-09-07T06:50:17;10.65;;;9.65;;
15285;SDS011;7744;52.172;10.668;2023-09-07T06:52:43;10.82;;;9.35;;
15285;SDS011;7744;52.172;10.668;2023-09-07T06:55:09;9.52;;;8.68;;
15285;SDS011;7744;52.172;10.668;2023-09-07T06:57:34;8.95;;;8.15;;
15285;SDS011;7744;52.172;10.668;2023-09-07T07:00:00;9.43;;;7.60;;
15285;SDS011;7744;52.172;10.668;2023-09-07T07:02:30;8.75;;;7.90;;
15285;SDS011;7744;52.172;10.668;2023-09-07T07:04:56;8.65;;;7.78;;
15285;SDS011;7744;52.172;10.668;2023-09-07T07:07:21;8.38;;;7.57;;
15285;SDS011;7744;52.172;10.668;2023-09-07T07:09:47;9.88;;;7.55;;
15285;SDS011;7744;52.172;10.668;2023-09-07T07:12:13;7.40;;;6.70;;
15285;SDS011;7744;52.172;10.668;2023-09-07T07:14:38;8.52;;;7.60;;
15285;SDS011;7744;52.172;10.668;2023-09-07T07:17:04;9.07;;;7.95;;
15285;SDS011;7744;52.172;10.668;2023-09-07T07:19:30;8.73;;;7.53;;
15285;SDS011;7744;52.172;10.668;2023-09-07T07:21:56;8.85;;;6.82;;
15285;SDS011;7744;52.172;10.668;2023-09-07T07:24:22;7.97;;;7.28;;
15285;SDS011;7744;52.172;10.668;2023-09-07T07:26:47;8.40;;;6.95;;
15285;SDS011;7744;52.172;10.668;2023-09-07T07:29:13;20.65;;;7.70;;
15285;SDS011;7744;52.172;10.668;2023-09-07T07:31:38;16.52;;;7.88;;
15285;SDS011;7744;52.172;10.668;2023-09-07T07:34:04;13.07;;;6.70;;
15285;SDS011;7744;52.172;10.668;2023-09-07T07:36:30;14.13;;;7.40;;
15285;SDS011;7744;52.172;10.668;2023-09-07T07:38:56;15.35;;;7.40;;
15285;SDS011;7744;52.172;10.668;2023-09-07T07:41:21;11.10;;;6.78;;
15285;SDS011;7744;52.172;10.668;2023-09-07T07:43:47;15.90;;;7.40;;
15285;SDS011;7744;52.172;10.668;2023-09-07T07:46:13;12.38;;;7.03;;
15285;SDS011;7744;52.172;10.668;2023-09-07T07:48:40;12.93;;;6.97;;
15285;SDS011;7744;52.172;10.668;2023-09-07T07:51:06;7.47;;;6.78;;
15285;SDS011;7744;52.172;10.668;2023-09-07T07:53:34;9.43;;;7.38;;
15285;SDS011;7744;52.172;10.668;2023-09-07T07:55:59;10.23;;;7.78;;
15285;SDS011;7744;52.172;10.668;2023-09-07T07:58:25;9.07;;;7.63;;
15285;SDS011;7744;52.172;10.668;2023-09-07T08:00:51;10.68;;;7.90;;
15285;SDS011;7744;52.172;10.668;2023-09-07T08:03:17;8.65;;;7.30;;
15285;SDS011;7744;52.172;10.668;2023-09-07T08:05:42;10.48;;;8.30;;
15285;SDS011;7744;52.172;10.668;2023-09-07T08:08:08;8.07;;;7.35;;
15285;SDS011;7744;52.172;10.668;2023-09-07T08:10:35;9.82;;;8.18;;
15285;SDS011;7744;52.172;10.668;2023-09-07T08:13:06;8.60;;;7.80;;
15285;SDS011;7744;52.172;10.668;2023-09-07T08:15:32;8.40;;;7.47;;
15285;SDS011;7744;52.172;10.668;2023-09-07T08:17:58;8.10;;;7.38;;
15285;SDS011;7744;52.172;10.668;2023-09-07T08:20:25;8.75;;;7.65;;
15285;SDS011;7744;52.172;10.668;2023-09-07T08:22:51;8.82;;;7.90;;
15285;SDS011;7744;52.172;10.668;2023-09-07T08:25:17;8.10;;;7.40;;
15285;SDS011;7744;52.172;10.668;2023-09-07T08:27:43;9.05;;;6.88;;
15285;SDS011;7744;52.172;10.668;2023-09-07T08:30:15;8.30;;;6.95;;
15285;SDS011;7744;52.172;10.668;2023-09-07T08:32:42;8.32;;;7.50;;
15285;SDS011;7744;52.172;10.668;2023-09-07T08:35:09;7.95;;;7.15;;
15285;SDS011;7744;52.172;10.668;2023-09-07T08:37:37;9.35;;;7.30;;
15285;SDS011;7744;52.172;10.668;2023-09-07T08:40:04;10.30;;;7.38;;
15285;SDS011;7744;52.172;10.668;2023-09-07T08:42:32;8.13;;;6.40;;
15285;SDS011;7744;52.172;10.668;2023-09-07T08:45:01;7.88;;;6.75;;
15285;SDS011;7744;52.172;10.668;2023-09-07T08:47:31;7.63;;;6.90;;
15285;SDS011;7744;52.172;10.668;2023-09-07T08:49:59;9.48;;;6.70;;
15285;SDS011;7744;52.172;10.668;2023-09-07T08:52:25;6.97;;;6.38;;
15285;SDS011;7744;52.172;10.668;2023-09-07T08:54:51;7.70;;;6.90;;
15285;SDS011;7744;52.172;10.668;2023-09-07T08:57:18;9.50;;;6.72;;
15285;SDS011;7744;52.172;10.668;2023-09-07T08:59:45;7.30;;;6.60;;
15285;SDS011;7744;52.172;10.668;2023-09-07T09:02:10;8.60;;;6.80;;
15285;SDS011;7744;52.172;10.668;2023-09-07T09:04:37;8.20;;;6.45;;
15285;SDS011;7744;52.172;10.668;2023-09-07T09:07:04;7.68;;;6.53;;
15285;SDS011;7744;52.172;10.668;2023-09-07T09:09:29;7.47;;;6.72;;
15285;SDS011;7744;52.172;10.668;2023-09-07T09:12:06;8.93;;;6.90;;
15285;SDS011;7744;52.172;10.668;2023-09-07T09:14:32;7.10;;;5.80;;
15285;SDS011;7744;52.172;10.668;2023-09-07T09:16:58;9.20;;;5.90;;
15285;SDS011;7744;52.172;10.668;2023-09-07T09:19:30;8.20;;;6.10;;
15285;SDS011;7744;52.172;10.668;2023-09-07T09:21:57;8.18;;;6.38;;
15285;SDS011;7744;52.172;10.668;2023-09-07T09:24:23;7.68;;;6.47;;
15285;SDS011;7744;52.172;10.668;2023-09-07T09:26:48;6.22;;;5.68;;
15285;SDS011;7744;52.172;10.668;2023-09-07T09:29:14;5.55;;;5.15;;
15285;SDS011;7744;52.172;10.668;2023-09-07T09:31:40;7.40;;;5.45;;
15285;SDS011;7744;52.172;10.668;2023-09-07T09:34:06;9.05;;;5.97;;
15285;SDS011;7744;52.172;10.668;2023-09-07T09:36:33;6.43;;;5.78;;
15285;SDS011;7744;52.172;10.668;2023-09-07T09:39:00;9.10;;;5.60;;
15285;SDS011;7744;52.172;10.668;2023-09-07T09:41:26;5.75;;;5.03;;
15285;SDS011;7744;52.172;10.668;2023-09-07T09:43:52;8.57;;;5.18;;
15285;SDS011;7744;52.172;10.668;2023-09-07T09:46:20;8.07;;;5.10;;
15285;SDS011;7744;52.172;10.668;2023-09-07T09:48:47;5.43;;;4.88;;
15285;SDS011;7744;52.172;10.668;2023-09-07T09:51:14;5.53;;;5.03;;
15285;SDS011;7744;52.172;10.668;2023-09-07T09:53:40;5.63;;;4.43;;
15285;SDS011;7744;52.172;10.668;2023-09-07T09:56:07;10.07;;;4.53;;
15285;SDS011;7744;52.172;10.668;2023-09-07T09:58:33;6.75;;;4.53;;
15285;SDS011;7744;52.172;10.668;2023-09-07T10:00:59;7.82;;;4.68;;
15285;SDS011;7744;52.172;10.668;2023-09-07T10:06:10;7.82;;;4.55;;
15285;SDS011;7744;52.172;10.668;2023-09-07T10:08:37;4.78;;;4.35;;
15285;SDS011;7744;52.172;10.668;2023-09-07T10:11:08;5.15;;;4.32;;
15285;SDS011;7744;52.172;10.668;2023-09-07T10:13:34;4.60;;;4.20;;
15285;SDS011;7744;52.172;10.668;2023-09-07T10:16:04;7.13;;;4.63;;
15285;SDS011;7744;52.172;10.668;2023-09-07T10:18:34;5.57;;;3.60;;
15285;SDS011;7744;52.172;10.668;2023-09-07T10:21:00;8.02;;;4.20;;
15285;SDS011;7744;52.172;10.668;2023-09-07T10:26:12;7.95;;;4.20;;
15285;SDS011;7744;52.172;10.668;2023-09-07T10:28:40;4.35;;;3.95;;
15285;SDS011;7744;52.172;10.668;2023-09-07T10:31:06;4.93;;;4.18;;
15285;SDS011;7744;52.172;10.668;2023-09-07T10:33:38;5.82;;;4.82;;
15285;SDS011;7744;52.172;10.668;2023-09-07T10:36:04;5.72;;;4.10;;
15285;SDS011;7744;52.172;10.668;2023-09-07T10:38:31;5.07;;;4.40;;
15285;SDS011;7744;52.172;10.668;2023-09-07T10:41:01;4.85;;;4.35;;
15285;SDS011;7744;52.172;10.668;2023-09-07T10:43:29;7.03;;;4.40;;
15285;SDS011;7744;52.172;10.668;2023-09-07T10:45:56;5.65;;;4.07;;
15285;SDS011;7744;52.172;10.668;2023-09-07T10:48:28;6.40;;;4.88;;
15285;SDS011;7744;52.172;10.668;2023-09-07T10:50:54;6.68;;;4.47;;
15285;SDS011;7744;52.172;10.668;2023-09-07T10:53:28;5.00;;;4.53;;
15285;SDS011;7744;52.172;10.668;2023-09-07T10:56:02;4.53;;;4.13;;
15285;SDS011;7744;52.172;10.668;2023-09-07T10:58:30;5.70;;;4.25;;
15285;SDS011;7744;52.172;10.668;2023-09-07T11:00:57;6.13;;;4.45;;
15285;SDS011;7744;52.172;10.668;2023-09-07T11:03:24;5.00;;;4.50;;
15285;SDS011;7744;52.172;10.668;2023-09-07T11:05:53;5.22;;;4.78;;
15285;SDS011;7744;52.172;10.668;2023-09-07T11:08:38;6.95;;;4.95;;
15285;SDS011;7744;52.172;10.668;2023-09-07T11:11:04;5.78;;;3.97;;
15285;SDS011;7744;52.172;10.668;2023-09-07T11:13:30;6.22;;;4.07;;
15285;SDS011;7744;52.172;10.668;2023-09-07T11:15:56;8.63;;;4.32;;
15285;SDS011;7744;52.172;10.668;2023-09-07T11:18:24;5.80;;;3.80;;
15285;SDS011;7744;52.172;10.668;2023-09-07T11:20:50;6.57;;;4.07;;
15285;SDS011;7744;52.172;10.668;2023-09-07T11:23:17;4.28;;;3.90;;
15285;SDS011;7744;52.172;10.668;2023-09-07T11:25:43;6.88;;;4.18;;
15285;SDS011;7744;52.172;10.668;2023-09-07T11:28:11;6.28;;;4.05;;
15285;SDS011;7744;52.172;10.668;2023-09-07T11:30:37;4.53;;;4.10;;
15285;SDS011;7744;52.172;10.668;2023-09-07T11:33:04;4.32;;;3.92;;
15285;SDS011;7744;52.172;10.668;2023-09-07T11:35:32;7.43;;;4.13;;
15285;SDS011;7744;52.172;10.668;2023-09-07T11:38:01;4.25;;;3.95;;
15285;SDS011;7744;52.172;10.668;2023-09-07T11:40:29;4.30;;;3.90;;
15285;SDS011;7744;52.172;10.668;2023-09-07T11:42:55;4.32;;;3.97;;
15285;SDS011;7744;52.172;10.668;2023-09-07T11:45:20;4.35;;;3.97;;
15285;SDS011;7744;52.172;10.668;2023-09-07T11:47:46;5.10;;;4.00;;
15285;SDS011;7744;52.172;10.668;2023-09-07T11:50:12;4.07;;;3.72;;
15285;SDS011;7744;52.172;10.668;2023-09-07T11:52:38;5.65;;;4.35;;
15285;SDS011;7744;52.172;10.668;2023-09-07T11:55:03;4.70;;;4.13;;
15285;SDS011;7744;52.172;10.668;2023-09-07T11:57:29;4.32;;;3.90;;
15285;SDS011;7744;52.172;10.668;2023-09-07T11:59:55;4.50;;;4.07;;
15285;SDS011;7744;52.172;10.668;2023-09-07T12:02:21;4.50;;;3.65;;
15285;SDS011;7744;52.172;10.668;2023-09-07T12:04:47;6.05;;;3.78;;
15285;SDS011;7744;52.172;10.668;2023-09-07T12:07:13;6.45;;;4.20;;
15285;SDS011;7744;52.172;10.668;2023-09-07T12:09:40;4.35;;;3.92;;
15285;SDS011;7744;52.172;10.668;2023-09-07T12:12:05;5.38;;;3.90;;
15285;SDS011;7744;52.172;10.668;2023-09-07T12:14:31;4.07;;;3.67;;
15285;SDS011;7744;52.172;10.668;2023-09-07T12:16:57;6.88;;;3.40;;
15285;SDS011;7744;52.172;10.668;2023-09-07T12:19:23;5.78;;;4.03;;
15285;SDS011;7744;52.172;10.668;2023-09-07T12:21:49;5.30;;;4.05;;
15285;SDS011;7744;52.172;10.668;2023-09-07T12:24:16;4.88;;;4.38;;
15285;SDS011;7744;52.172;10.668;2023-09-07T12:26:41;5.65;;;3.78;;
15285;SDS011;7744;52.172;10.668;2023-09-07T12:29:07;4.15;;;3.72;;
15285;SDS011;7744;52.172;10.668;2023-09-07T12:31:33;8.18;;;3.80;;
15285;SDS011;7744;52.172;10.668;2023-09-07T12:33:58;5.25;;;3.42;;
15285;SDS011;7744;52.172;10.668;2023-09-07T12:36:24;7.13;;;3.85;;
15285;SDS011;7744;52.172;10.668;2023-09-07T12:38:49;4.03;;;3.70;;
15285;SDS011;7744;52.172;10.668;2023-09-07T12:41:15;4.53;;;3.63;;
15285;SDS011;7744;52.172;10.668;2023-09-07T12:43:41;4.18;;;3.47;;
15285;SDS011;7744;52.172;10.668;2023-09-07T12:46:08;4.90;;;3.92;;
15285;SDS011;7744;52.172;10.668;2023-09-07T12:48:34;4.78;;;3.80;;
15285;SDS011;7744;52.172;10.668;2023-09-07T12:51:00;5.00;;;3.58;;
15285;SDS011;7744;52.172;10.668;2023-09-07T12:53:25;4.20;;;3.80;;
15285;SDS011;7744;52.172;10.668;2023-09-07T12:55:54;3.80;;;3.40;;
15285;SDS011;7744;52.172;10.668;2023-09-07T12:58:19;5.05;;;3.55;;
15285;SDS011;7744;52.172;10.668;2023-09-07T13:00:45;4.35;;;3.58;;
15285;SDS011;7744;52.172;10.668;2023-09-07T13:03:13;3.95;;;3.58;;
15285;SDS011;7744;52.172;10.668;2023-09-07T13:05:39;3.95;;;3.55;;
15285;SDS011;7744;52.172;10.668;2023-09-07T13:08:04;3.95;;;3.15;;
15285;SDS011;7744;52.172;10.668;2023-09-07T13:10:31;4.05;;;3.53;;
15285;SDS011;7744;52.172;10.668;2023-09-07T13:12:57;4.13;;;3.58;;
15285;SDS011;7744;52.172;10.668;2023-09-07T13:15:23;8.05;;;3.53;;
15285;SDS011;7744;52.172;10.668;2023-09-07T13:17:48;4.93;;;3.10;;
15285;SDS011;7744;52.172;10.668;2023-09-07T13:20:14;3.90;;;3.33;;
15285;SDS011;7744;52.172;10.668;2023-09-07T13:22:41;5.55;;;3.42;;
15285;SDS011;7744;52.172;10.668;2023-09-07T13:25:07;7.40;;;3.55;;
15285;SDS011;7744;52.172;10.668;2023-09-07T13:27:33;4.35;;;3.30;;
15285;SDS011;7744;52.172;10.668;2023-09-07T13:29:58;6.55;;;3.20;;
15285;SDS011;7744;52.172;10.668;2023-09-07T13:32:26;7.88;;;3.05;;
15285;SDS011;7744;52.172;10.668;2023-09-07T13:34:51;3.63;;;3.25;;
15285;SDS011;7744;52.172;10.668;2023-09-07T13:37:17;3.50;;;3.20;;
15285;SDS011;7744;52.172;10.668;2023-09-07T13:39:42;4.07;;;3.10;;
15285;SDS011;7744;52.172;10.668;2023-09-07T13:42:08;3.60;;;3.20;;
15285;SDS011;7744;52.172;10.668;2023-09-07T13:44:34;3.65;;;3.35;;
15285;SDS011;7744;52.172;10.668;2023-09-07T13:46:59;3.83;;;3.45;;
15285;SDS011;7744;52.172;10.668;2023-09-07T13:49:25;4.63;;;3.20;;
15285;SDS011;7744;52.172;10.668;2023-09-07T13:51:50;3.60;;;3.30;;
15285;SDS011;7744;52.172;10.668;2023-09-07T13:54:16;6.32;;;3.72;;
15285;SDS011;7744;52.172;10.668;2023-09-07T13:56:41;3.92;;;3.40;;
15285;SDS011;7744;52.172;10.668;2023-09-07T13:59:09;4.25;;;3.10;;
15285;SDS011;7744;52.172;10.668;2023-09-07T14:01:35;5.70;;;3.40;;
15285;SDS011;7744;52.172;10.668;2023-09-07T14:04:01;5.10;;;3.10;;
15285;SDS011;7744;52.172;10.668;2023-09-07T14:06:26;3.35;;;3.05;;
15285;SDS011;7744;52.172;10.668;2023-09-07T14:08:52;5.07;;;3.20;;
15285;SDS011;7744;52.172;10.668;2023-09-07T14:11:18;4.18;;;3.00;;
15285;SDS011;7744;52.172;10.668;2023-09-07T14:13:43;4.63;;;3.40;;
15285;SDS011;7744;52.172;10.668;2023-09-07T14:16:09;3.65;;;3.28;;
15285;SDS011;7744;52.172;10.668;2023-09-07T14:18:35;5.22;;;3.17;;
15285;SDS011;7744;52.172;10.668;2023-09-07T14:21:01;4.22;;;3.33;;
15285;SDS011;7744;52.172;10.668;2023-09-07T14:23:28;3.33;;;3.03;;
15285;SDS011;7744;52.172;10.668;2023-09-07T14:25:55;5.32;;;3.00;;
15285;SDS011;7744;52.172;10.668;2023-09-07T14:28:20;3.92;;;3.25;;
15285;SDS011;7744;52.172;10.668;2023-09-07T14:30:46;4.10;;;3.20;;
15285;SDS011;7744;52.172;10.668;2023-09-07T14:33:12;4.78;;;3.00;;
15285;SDS011;7744;52.172;10.668;2023-09-07T14:35:38;5.03;;;3.28;;
15285;SDS011;7744;52.172;10.668;2023-09-07T14:38:04;5.68;;;3.38;;
15285;SDS011;7744;52.172;10.668;2023-09-07T14:40:30;4.93;;;3.33;;
15285;SDS011;7744;52.172;10.668;2023-09-07T14:42:56;3.60;;;3.13;;
15285;SDS011;7744;52.172;10.668;2023-09-07T14:45:23;4.72;;;3.13;;